createdAt,value
2023-01-04T00:03:20.513Z,102139.03
2023-01-04T00:08:22.874Z,102119.47
2023-01-04T00:13:26.627Z,102114.78
2023-01-04T00:18:30.132Z,102101.22
2023-01-04T00:23:32.202Z,102089.59
2023-01-04T00:28:35.702Z,102092.00
2023-01-04T00:33:38.692Z,102063.44
2023-01-04T00:38:42.034Z,102046.13
2023-01-04T00:43:45.354Z,102047.09
2023-01-04T00:48:49.048Z,102049.03
2023-01-04T00:53:51.437Z,102039.94
2023-01-04T00:58:56.561Z,102023.75
2023-01-04T01:04:00.047Z,102023.81
2023-01-04T01:09:02.471Z,102022.06
2023-01-04T01:14:07.114Z,102028.72
2023-01-04T01:19:11.993Z,102030.88
2023-01-04T01:24:17.219Z,102026.47
2023-01-04T01:29:20.646Z,102016.47
2023-01-04T01:34:22.953Z,102031.25
2023-01-04T01:39:25.069Z,102026.66
2023-01-04T01:44:57.675Z,102008.09
2023-01-04T01:50:01.037Z,102009.06
2023-01-04T01:55:06.749Z,102001.31
2023-01-04T02:00:13.609Z,101999.78
2023-01-04T02:05:16.780Z,101988.28
2023-01-04T02:10:19.109Z,101972.56
2023-01-04T02:15:26.455Z,101957.13
2023-01-04T02:20:44.906Z,101921.59
2023-01-04T02:26:36.085Z,101910.75
2023-01-04T02:31:40.666Z,101896.97
2023-01-04T02:36:55.173Z,101891.72
2023-01-04T02:42:04.052Z,101879.19
2023-01-04T02:47:11.137Z,101887.88
2023-01-04T02:52:13.833Z,101885.75
2023-01-04T02:57:28.542Z,101865.94
2023-01-04T03:02:57.241Z,101855.69
2023-01-04T03:08:09.429Z,101856.78
2023-01-04T03:13:20.547Z,101823.38
2023-01-04T03:18:28.692Z,101835.97
2023-01-04T03:23:35.998Z,101821.00
2023-01-04T03:28:39.390Z,101815.34
2023-01-04T03:33:43.453Z,101792.69
2023-01-04T03:38:52.742Z,101800.22
2023-01-04T03:44:06.588Z,101762.31
2023-01-04T03:49:17.231Z,101776.84
2023-01-04T03:54:23.516Z,101755.53
2023-01-04T03:59:25.915Z,101762.56
2023-01-04T04:04:29.343Z,101745.19
2023-01-04T04:09:31.396Z,101717.19
2023-01-04T04:14:33.437Z,101707.03
2023-01-04T04:19:36.440Z,101702.22
2023-01-04T04:24:38.531Z,101675.59
2023-01-04T04:29:40.582Z,101673.28
2023-01-04T04:34:43.784Z,101671.50
2023-01-04T04:39:46.075Z,101672.72
2023-01-04T04:44:47.744Z,101637.75
2023-01-04T04:49:50.930Z,101627.44
2023-01-04T04:54:53.257Z,101622.22
2023-01-04T04:59:54.937Z,101613.63
2023-01-04T05:04:57.990Z,101600.59
2023-01-04T05:09:59.847Z,101591.91
2023-01-04T05:15:01.976Z,101565.22
2023-01-04T05:20:05.760Z,101544.50
2023-01-04T05:25:09.126Z,101546.66
2023-01-04T05:30:12.779Z,101526.78
2023-01-04T05:35:16.281Z,101511.34
2023-01-04T05:40:18.894Z,101486.94
2023-01-04T05:45:21.087Z,101484.56
2023-01-04T05:50:24.867Z,101478.22
2023-01-04T05:55:26.987Z,101472.94
2023-01-04T06:00:29.246Z,101467.94
2023-01-04T06:05:32.717Z,101451.69
2023-01-04T06:10:34.893Z,101439.06
2023-01-04T06:15:42.867Z,101432.56
2023-01-04T06:20:46.734Z,101414.41
2023-01-04T06:25:48.845Z,101400.66
2023-01-04T06:30:50.991Z,101407.75
2023-01-04T06:35:57.049Z,101385.88
2023-01-04T06:40:59.008Z,101376.47
2023-01-04T06:46:01.179Z,101368.00
2023-01-04T06:51:05.421Z,101371.06
2023-01-04T06:56:07.980Z,101365.50
2023-01-04T07:01:10.207Z,101354.38
2023-01-04T07:06:13.331Z,101338.69
2023-01-04T07:11:15.551Z,101327.41
2023-01-04T07:16:17.860Z,101317.69
2023-01-04T07:21:21.110Z,101309.75
2023-01-04T07:26:23.249Z,101300.06
2023-01-04T07:31:25.700Z,101292.91
2023-01-04T07:36:29.120Z,101281.50
2023-01-04T07:41:31.086Z,101261.25
2023-01-04T07:46:33.266Z,101256.81
2023-01-04T07:51:36.349Z,101247.19
2023-01-04T07:56:38.178Z,101238.47
2023-01-04T08:01:40.414Z,101226.25
2023-01-04T08:06:44.435Z,101208.06
2023-01-04T08:11:46.992Z,101195.91
2023-01-04T08:16:49.806Z,101177.56
2023-01-04T08:21:53.321Z,101182.88
2023-01-04T08:26:55.439Z,101193.50
2023-01-04T08:31:57.563Z,101178.66
2023-01-04T08:37:01.687Z,101168.13
2023-01-04T08:42:18.722Z,101165.41
2023-01-04T08:47:23.412Z,101175.06
2023-01-04T08:52:27.577Z,101167.19
2023-01-04T08:57:29.657Z,101154.13
2023-01-04T09:02:31.953Z,101159.38
2023-01-04T09:07:35.627Z,101162.03
2023-01-04T09:12:38.024Z,101154.13
2023-01-04T09:17:58.009Z,101137.47
2023-01-04T09:23:03.936Z,101146.25
2023-01-04T09:28:06.226Z,101126.91
2023-01-04T09:33:08.228Z,101121.69
2023-01-04T09:38:11.584Z,101122.63
2023-01-04T09:43:21.060Z,101110.38
2023-01-04T09:48:29.791Z,101094.53
2023-01-04T09:53:39.244Z,101076.13
2023-01-04T09:58:42.966Z,101077.06
2023-01-04T10:03:52.021Z,101063.06
2023-01-04T10:08:59.583Z,101045.50
2023-01-04T10:14:26.073Z,101023.53
2023-01-04T10:25:20.569Z,101014.75
2023-01-04T10:30:33.221Z,100987.53
2023-01-04T10:35:36.115Z,100993.69
2023-01-04T10:40:40.873Z,100984.06
2023-01-04T10:45:49.985Z,100976.19
2023-01-04T10:50:55.756Z,100962.16
2023-01-04T10:56:23.726Z,100949.03
2023-01-04T11:01:32.122Z,100931.47
2023-01-04T11:06:39.164Z,100927.13
2023-01-04T11:11:44.526Z,100921.88
2023-01-04T11:16:50.656Z,100906.94
2023-01-04T11:21:58.210Z,100892.88
2023-01-04T11:27:05.371Z,100907.84
2023-01-04T11:32:17.353Z,100892.91
2023-01-04T11:37:31.212Z,100893.75
2023-01-04T11:42:34.612Z,100870.88
2023-01-04T11:47:50.765Z,100864.72
2023-01-04T11:52:53.632Z,100855.03
2023-01-04T11:58:07.955Z,100847.97
2023-01-04T12:03:14.097Z,100846.22
2023-01-04T12:08:28.739Z,100847.09
2023-01-04T12:13:33.791Z,100826.84
2023-01-04T12:18:37.815Z,100820.66
2023-01-04T12:23:39.927Z,100812.75
2023-01-04T12:28:47.575Z,100816.25
2023-01-04T12:33:50.680Z,100805.69
2023-01-04T12:39:26.342Z,100800.41
2023-01-04T12:45:02.119Z,100794.25
2023-01-04T12:50:07.315Z,100785.44
2023-01-04T12:55:43.624Z,100788.06
2023-01-04T13:01:19.666Z,100770.47
2023-01-04T13:06:25.218Z,100780.16
2023-01-04T13:11:42.150Z,100760.78
2023-01-04T13:16:50.967Z,100754.59
2023-01-04T13:21:55.762Z,100747.56
2023-01-04T13:27:04.686Z,100724.66
2023-01-04T13:32:11.441Z,100724.66
2023-01-04T13:37:22.368Z,100713.19
2023-01-04T13:42:26.896Z,100718.50
2023-01-04T13:47:31.071Z,100708.78
2023-01-04T13:52:54.860Z,100690.28
2023-01-04T13:57:59.292Z,100694.69
2023-01-04T14:03:15.173Z,100707.00
2023-01-04T14:08:32.160Z,100706.97
2023-01-04T14:13:34.159Z,100703.44
2023-01-04T14:18:36.822Z,100691.09
2023-01-04T14:23:40.635Z,100694.56
2023-01-04T14:28:49.660Z,100690.16
2023-01-04T14:33:53.987Z,100675.19
2023-01-04T14:39:22.263Z,100669.03
2023-01-04T14:44:25.970Z,100650.50
2023-01-04T14:49:28.421Z,100668.09
2023-01-04T14:54:32.381Z,100641.66
2023-01-04T14:59:34.582Z,100642.50
2023-01-04T15:04:36.807Z,100650.41
2023-01-04T15:09:39.882Z,100637.16
2023-01-04T15:14:41.956Z,100637.13
2023-01-04T15:19:43.813Z,100623.84
2023-01-04T15:24:46.887Z,100627.41
2023-01-04T15:29:49.139Z,100617.66
2023-01-04T15:34:51.549Z,100628.19
2023-01-04T15:40:01.677Z,100614.09
2023-01-04T15:45:06.205Z,100620.25
2023-01-04T15:50:08.502Z,100614.91
2023-01-04T15:55:12.816Z,100603.38
2023-01-04T16:00:15.747Z,100578.69
2023-01-04T16:05:18.461Z,100581.22
2023-01-04T16:10:22.204Z,100569.75
2023-01-04T16:15:24.316Z,100569.59
2023-01-04T16:20:26.186Z,100543.94
2023-01-04T16:25:29.534Z,100550.97
2023-01-04T16:30:33.704Z,100530.69
2023-01-04T16:35:35.765Z,100535.91
2023-01-04T16:40:39.223Z,100535.84
2023-01-04T16:45:41.542Z,100530.50
2023-01-04T16:50:43.608Z,100522.25
2023-01-04T16:55:47.348Z,100519.56
2023-01-04T17:00:49.486Z,100513.34
2023-01-04T17:05:51.675Z,100494.75
2023-01-04T17:11:01.528Z,100500.22
2023-01-04T17:16:14.433Z,100491.66
2023-01-04T17:21:35.548Z,100481.13
2023-01-04T17:26:40.052Z,100482.78
2023-01-04T17:31:43.932Z,100464.13
2023-01-04T17:36:46.007Z,100450.66
2023-01-04T17:41:49.490Z,100447.84
2023-01-04T17:46:51.682Z,100455.78
2023-01-04T17:51:53.743Z,100433.53
2023-01-04T17:56:57.725Z,100446.78
2023-01-04T18:01:59.990Z,100444.91
2023-01-04T18:07:01.825Z,100440.59
2023-01-04T18:12:05.634Z,100435.00
2023-01-04T18:17:07.794Z,100442.66
2023-01-04T18:22:09.978Z,100443.41
2023-01-04T18:27:23.899Z,100430.09
2023-01-04T18:32:27.521Z,100421.09
2023-01-04T18:37:29.318Z,100417.59
2023-01-04T18:42:32.441Z,100410.59
2023-01-04T18:47:35.378Z,100413.53
2023-01-04T18:52:37.150Z,100401.16
2023-01-04T18:57:40.751Z,100404.66
2023-01-04T19:02:42.996Z,100392.16
2023-01-04T19:07:44.994Z,100392.91
2023-01-04T19:12:48.206Z,100389.41
2023-01-04T19:17:50.122Z,100378.09
2023-01-04T19:22:51.938Z,100376.13
2023-01-04T19:27:55.239Z,100381.47
2023-01-04T19:32:57.751Z,100377.91
2023-01-04T19:38:00.024Z,100357.59
2023-01-04T19:43:04.988Z,100361.31
2023-01-04T19:48:07.127Z,100355.94
2023-01-04T19:53:10.290Z,100352.47
2023-01-04T19:58:14.494Z,100358.53
2023-01-04T20:03:16.775Z,100357.69
2023-01-04T20:08:18.837Z,100351.59
2023-01-04T20:13:22.285Z,100344.47
2023-01-04T20:18:24.485Z,100336.50
2023-01-04T20:23:26.446Z,100336.47
2023-01-04T20:28:29.546Z,100338.97
2023-01-04T20:33:31.409Z,100345.31
2023-01-04T20:38:39.869Z,100346.16
2023-01-04T20:43:45.297Z,100332.78
2023-01-04T20:48:48.037Z,100344.31
2023-01-04T20:53:50.508Z,100336.44
2023-01-04T20:58:54.707Z,100321.09
2023-01-04T21:03:56.687Z,100320.47
2023-01-04T21:08:58.699Z,100333.88
2023-01-04T21:14:01.893Z,100330.50
2023-01-04T21:19:03.636Z,100316.38
2023-01-04T21:24:05.854Z,100309.34
2023-01-04T21:29:09.455Z,100288.97
2023-01-04T21:34:15.132Z,100284.69
2023-01-04T21:39:19.259Z,100279.25
2023-01-04T21:44:22.355Z,100259.78
2023-01-04T21:49:24.019Z,100277.44
2023-01-04T21:54:25.737Z,100293.34
2023-01-04T21:59:29.491Z,100291.50
2023-01-04T22:04:31.616Z,100288.59
2023-01-04T22:09:33.733Z,100285.81
2023-01-04T22:14:37.176Z,100284.44
2023-01-04T22:19:39.184Z,100279.22
2023-01-04T22:24:41.253Z,100288.03
2023-01-04T22:29:44.680Z,100284.56
2023-01-04T22:34:46.812Z,100292.69
2023-01-04T22:39:48.831Z,100316.72
2023-01-04T22:44:52.514Z,100316.00
2023-01-04T22:49:54.642Z,100288.53
2023-01-04T22:54:56.716Z,100313.38
2023-01-04T23:00:00.920Z,100306.19
2023-01-04T23:05:03.102Z,100307.09
2023-01-04T23:10:05.954Z,100294.97
2023-01-04T23:15:11.101Z,100303.31
2023-01-04T23:20:14.705Z,100312.22
2023-01-04T23:25:20.536Z,100311.94
2023-01-04T23:30:24.267Z,100302.13
2023-01-04T23:35:26.287Z,100313.88
2023-01-04T23:40:28.206Z,100293.53
2023-01-04T23:45:31.295Z,100310.38
2023-01-04T23:50:33.288Z,100299.09
2023-01-04T23:55:35.189Z,100319.59
